Time;durP1;ratioP1;P1;durP2;ratioP2;P2;SDS_P1;SDS_P2;PMS_P1;PMS_P2;Temp;Humidity;BMP_temperature;BMP_pressure;BME280_temperature;BME280_humidity;BME280_pressure;Samples;Min_cycle;Max_cycle;Signal;HPM_P1;HPM_P2
2022/12/19 00:01:07;;;;;;;33.13;19.55;;;0.30;99.90;;;;;;5073377;28;20131;-80
2022/12/19 00:03:34;;;;;;;35.75;20.13;;;0.30;99.90;;;;;;5073474;28;20542;-80
2022/12/19 00:06:02;;;;;;;38.33;19.45;;;0.30;99.90;;;;;;5071922;28;20047;-81
2022/12/19 00:08:28;;;;;;;36.28;20.65;;;0.30;99.90;;;;;;5073268;28;20048;-79
2022/12/19 00:10:59;;;;;;;37.50;19.88;;;0.40;99.90;;;;;;5073680;28;20384;-78
2022/12/19 00:13:26;;;;;;;36.60;20.52;;;0.40;99.90;;;;;;5073217;28;20505;-80
2022/12/19 00:15:51;;;;;;;36.65;20.60;;;0.40;99.90;;;;;;5073363;28;20083;-80
2022/12/19 00:18:17;;;;;;;34.88;18.73;;;0.40;99.90;;;;;;5072147;28;20438;-79
2022/12/19 00:20:42;;;;;;;39.50;19.00;;;0.40;99.90;;;;;;5071973;28;20045;-80
2022/12/19 00:23:08;;;;;;;36.83;19.70;;;0.40;99.90;;;;;;5072361;28;20048;-80
2022/12/19 00:25:34;;;;;;;39.38;19.02;;;0.40;99.90;;;;;;5071712;28;20056;-80
2022/12/19 00:27:59;;;;;;;37.65;19.13;;;0.40;99.90;;;;;;5072982;28;20052;-79
2022/12/19 00:30:25;;;;;;;35.28;19.10;;;0.40;99.90;;;;;;5072195;28;20036;-80
2022/12/19 00:32:51;;;;;;;36.95;18.95;;;0.50;99.90;;;;;;5071891;28;20044;-80
2022/12/19 00:35:16;;;;;;;37.13;19.25;;;0.40;99.90;;;;;;5072061;28;20473;-79
2022/12/19 00:37:42;;;;;;;42.58;20.60;;;0.50;99.90;;;;;;5072757;28;20041;-79
2022/12/19 00:40:08;;;;;;;37.17;20.50;;;0.40;99.90;;;;;;5073443;28;20119;-81
2022/12/19 00:42:34;;;;;;;42.00;21.03;;;0.40;99.90;;;;;;5071696;28;20133;-81
2022/12/19 00:44:59;;;;;;;41.45;20.77;;;0.50;99.90;;;;;;5072046;28;20076;-80
2022/12/19 00:47:25;;;;;;;37.13;18.85;;;0.50;99.90;;;;;;5073054;28;20049;-81
2022/12/19 00:49:51;;;;;;;38.50;20.00;;;1.60;99.90;;;;;;5072667;28;20500;-80
2022/12/19 00:52:16;;;;;;;44.45;20.27;;;0.50;99.90;;;;;;5073382;28;20048;-79
2022/12/19 00:54:42;;;;;;;41.00;20.13;;;0.50;99.90;;;;;;5076632;28;20095;-80
2022/12/19 00:57:07;;;;;;;37.17;20.02;;;0.50;99.90;;;;;;5076562;28;20448;-81
2022/12/19 00:59:33;;;;;;;35.67;19.02;;;0.50;99.90;;;;;;5076494;28;20044;-80
2022/12/19 01:01:58;;;;;;;35.33;18.73;;;0.50;99.90;;;;;;5076510;28;20139;-80
2022/12/19 01:04:24;;;;;;;39.85;21.83;;;0.60;99.90;;;;;;5076452;28;20065;-80
2022/12/19 01:06:50;;;;;;;36.13;19.38;;;0.60;99.90;;;;;;5076285;28;20540;-80
2022/12/19 01:09:16;;;;;;;39.03;20.38;;;0.60;99.90;;;;;;5076353;28;20041;-80
2022/12/19 01:14:46;;;;;;;38.75;20.60;;;0.60;99.90;;;;;;5053775;28;20144;-80
2022/12/19 01:17:12;;;;;;;41.80;19.95;;;0.60;99.90;;;;;;5037361;28;20122;-80
2022/12/19 01:19:38;;;;;;;37.25;20.65;;;0.70;99.90;;;;;;5064526;28;20492;-80
2022/12/19 01:22:03;;;;;;;35.33;20.27;;;0.70;99.90;;;;;;5076043;28;20044;-80
2022/12/19 01:24:29;;;;;;;40.85;22.23;;;0.70;99.90;;;;;;5076157;28;20190;-80
2022/12/19 01:26:55;;;;;;;37.55;19.50;;;0.70;99.90;;;;;;5075896;28;20045;-81
2022/12/19 01:29:20;;;;;;;36.92;19.80;;;0.70;99.90;;;;;;5074855;28;20110;-81
2022/12/19 01:31:46;;;;;;;33.83;19.80;;;1.50;99.90;;;;;;5075896;28;20045;-80
2022/12/19 01:34:12;;;;;;;36.22;20.27;;;0.70;99.90;;;;;;5074777;28;20491;-81
2022/12/19 01:36:38;;;;;;;40.33;19.85;;;0.80;99.90;;;;;;5074682;28;20052;-80
2022/12/19 01:39:03;;;;;;;39.72;20.23;;;0.80;99.90;;;;;;5075545;28;20109;-80
2022/12/19 01:41:29;;;;;;;42.22;20.20;;;0.90;99.90;;;;;;5074642;28;20136;-81
2022/12/19 01:43:56;;;;;;;41.55;21.00;;;0.90;99.90;;;;;;5074618;28;20047;-81
2022/12/19 01:46:27;;;;;;;41.13;20.70;;;0.80;99.90;;;;;;5075591;28;20496;-80
2022/12/19 01:48:52;;;;;;;42.22;22.08;;;0.90;99.90;;;;;;5075621;28;20431;-81
2022/12/19 01:51:39;;;;;;;36.03;19.35;;;0.80;99.90;;;;;;5075464;28;20044;-80
2022/12/19 01:54:07;;;;;;;41.05;21.70;;;0.90;99.90;;;;;;5074489;28;20124;-81
2022/12/19 01:56:41;;;;;;;42.28;20.90;;;0.90;99.90;;;;;;5075489;28;20092;-80
2022/12/19 01:59:15;;;;;;;38.78;21.42;;;0.90;99.90;;;;;;5075460;28;20047;-81
2022/12/19 02:01:45;;;;;;;37.25;20.83;;;0.90;99.90;;;;;;5075873;28;20135;-80
2022/12/19 02:04:12;;;;;;;45.65;21.92;;;0.90;99.90;;;;;;5074835;28;20045;-80
2022/12/19 02:06:41;;;;;;;43.55;22.30;;;1.10;99.90;;;;;;5075504;28;20056;-81
2022/12/19 02:09:07;;;;;;;40.13;20.92;;;1.00;99.90;;;;;;5075651;28;20044;-81
2022/12/19 02:11:32;;;;;;;37.35;21.77;;;1.00;99.90;;;;;;5075156;28;20123;-81
2022/12/19 02:13:58;;;;;;;41.78;23.05;;;1.00;99.90;;;;;;5075929;28;20485;-80
2022/12/19 02:16:53;;;;;;;33.55;19.25;;;1.00;99.90;;;;;;5075081;28;20052;-80
2022/12/19 02:19:40;;;;;;;41.63;21.98;;;1.00;99.90;;;;;;5075300;28;20036;-80
2022/12/19 02:22:28;;;;;;;41.85;21.25;;;1.00;99.90;;;;;;5074901;28;20040;-81
2022/12/19 02:24:58;;;;;;;42.55;20.55;;;1.10;99.90;;;;;;5070260;28;20055;-81
2022/12/19 02:28:11;;;;;;;41.85;21.33;;;1.10;99.90;;;;;;5074611;28;20048;-80
2022/12/19 02:31:21;;;;;;;40.97;21.95;;;1.10;99.90;;;;;;5074881;28;20131;-80
2022/12/19 02:34:07;;;;;;;41.95;21.25;;;1.10;99.90;;;;;;5052354;28;20090;-80
2022/12/19 02:36:40;;;;;;;37.03;21.17;;;1.20;99.90;;;;;;5072850;28;20109;-80
2022/12/19 02:39:19;;;;;;;37.58;20.40;;;1.30;99.90;;;;;;5074641;28;20045;-81
2022/12/19 02:41:50;;;;;;;45.15;22.33;;;1.10;99.90;;;;;;5074534;28;20044;-80
2022/12/19 02:44:22;;;;;;;42.88;22.23;;;1.20;99.90;;;;;;5073650;28;20072;-80
2022/12/19 02:46:49;;;;;;;48.58;23.05;;;1.10;99.90;;;;;;5073314;28;20056;-80
2022/12/19 02:49:15;;;;;;;46.45;24.30;;;1.50;99.90;;;;;;5074251;28;20373;-80
2022/12/19 02:51:41;;;;;;;48.30;23.73;;;1.10;99.90;;;;;;5074389;28;20468;-80
2022/12/19 02:54:08;;;;;;;44.58;23.05;;;1.10;99.90;;;;;;5074843;28;20040;-79
2022/12/19 02:56:43;;;;;;;47.25;22.23;;;1.10;99.90;;;;;;5073514;28;20392;-79
2022/12/19 02:59:33;;;;;;;46.72;22.67;;;1.10;99.90;;;;;;5074314;28;20178;-79
2022/12/19 03:02:39;;;;;;;55.63;24.17;;;1.10;99.90;;;;;;5074512;28;20048;-80
2022/12/19 03:05:15;;;;;;;49.70;23.02;;;1.10;99.90;;;;;;5073651;28;20508;-80
2022/12/19 03:07:41;;;;;;;54.83;26.08;;;1.20;99.90;;;;;;5073744;28;20105;-79
2022/12/19 03:10:12;;;;;;;53.78;23.40;;;1.20;99.90;;;;;;5073718;28;20052;-80
2022/12/19 03:12:55;;;;;;;52.67;25.60;;;1.20;99.90;;;;;;5073858;28;20052;-79
2022/12/19 03:15:22;;;;;;;51.33;24.67;;;1.20;99.90;;;;;;5072942;28;20045;-80
2022/12/19 03:17:48;;;;;;;48.72;23.88;;;1.20;99.90;;;;;;5073921;28;20044;-78
2022/12/19 03:20:20;;;;;;;45.67;22.77;;;1.10;99.90;;;;;;5073964;28;20562;-80
2022/12/19 03:22:46;;;;;;;56.33;25.67;;;1.20;99.90;;;;;;5073546;28;20037;-79
2022/12/19 03:25:12;;;;;;;60.83;26.00;;;1.30;99.90;;;;;;5074215;28;20045;-79
2022/12/19 03:27:38;;;;;;;62.85;27.10;;;1.30;99.90;;;;;;5072415;28;20047;-79
2022/12/19 03:30:09;;;;;;;53.85;25.80;;;1.30;99.90;;;;;;5072536;28;20476;-78
2022/12/19 03:32:37;;;;;;;56.47;26.33;;;1.30;99.90;;;;;;5074129;28;20041;-79
2022/12/19 03:35:30;;;;;;;61.63;26.05;;;1.30;99.90;;;;;;5073560;28;20048;-79
2022/12/19 03:38:00;;;;;;;64.03;26.85;;;1.30;99.90;;;;;;5072980;28;20088;-78
2022/12/19 03:40:27;;;;;;;60.55;24.67;;;1.40;99.90;;;;;;5073529;28;20040;-79
2022/12/19 03:43:08;;;;;;;63.05;27.30;;;1.40;99.90;;;;;;5072347;28;20047;-79
2022/12/19 03:46:05;;;;;;;67.50;28.05;;;1.40;99.90;;;;;;5072583;28;20054;-79
2022/12/19 03:48:50;;;;;;;54.67;25.83;;;1.50;99.90;;;;;;5073500;28;20041;-79
2022/12/19 03:51:27;;;;;;;55.55;27.23;;;1.50;99.90;;;;;;5073571;28;20045;-78
2022/12/19 03:54:08;;;;;;;63.88;27.73;;;1.50;99.90;;;;;;5073479;28;20048;-78
2022/12/19 03:56:55;;;;;;;72.32;29.80;;;1.50;99.90;;;;;;5073508;28;20044;-79
2022/12/19 03:59:51;;;;;;;60.67;26.48;;;1.60;99.90;;;;;;5073664;28;20044;-78
2022/12/19 04:02:19;;;;;;;68.50;27.23;;;1.60;99.90;;;;;;5073384;28;20052;-78
2022/12/19 04:04:52;;;;;;;59.85;26.42;;;1.60;99.90;;;;;;5072333;28;20080;-79
2022/12/19 04:07:19;;;;;;;66.25;27.13;;;1.70;99.90;;;;;;5073610;28;20090;-78
2022/12/19 04:09:46;;;;;;;57.80;26.45;;;1.70;99.90;;;;;;5073578;28;20456;-78
2022/12/19 04:12:14;;;;;;;;;;;1.80;99.90;;;;;;5073691;28;20048;-78
2022/12/19 04:14:40;;;;;;;;;;;1.80;99.90;;;;;;5073389;28;20395;-78
2022/12/19 04:17:17;;;;;;;;;;;1.80;99.90;;;;;;5073540;28;19975;-78
2022/12/19 04:19:45;;;;;;;;;;;1.90;99.90;;;;;;5073928;28;19927;-79
2022/12/19 04:22:21;;;;;;;;;;;1.90;99.90;;;;;;5073637;28;20015;-79
2022/12/19 04:24:48;;;;;;;;;;;1.90;99.90;;;;;;5073749;28;19921;-78
2022/12/19 04:27:14;;;;;;;;;;;1.90;99.90;;;;;;5073842;28;20371;-78
2022/12/19 04:29:40;;;;;;;;;;;1.90;99.90;;;;;;5077554;28;19920;-79
2022/12/19 04:32:07;;;;;;;;;;;1.90;99.90;;;;;;5078082;28;19927;-79
2022/12/19 04:34:32;;;;;;;;;;;2.00;99.90;;;;;;5077486;28;19926;-79
2022/12/19 04:36:58;;;;;;;;;;;2.00;99.90;;;;;;5077446;28;20018;-79
2022/12/19 04:39:24;;;;;;;;;;;2.00;99.90;;;;;;5077457;28;19927;-80
2022/12/19 04:41:49;;;;;;;;;;;2.00;99.90;;;;;;5077400;28;19920;-80
2022/12/19 04:44:15;;;;;;;;;;;2.20;99.90;;;;;;5077275;28;20311;-80
2022/12/19 04:46:40;;;;;;;;;;;2.00;99.90;;;;;;5077113;28;20272;-80
2022/12/19 04:49:06;;;;;;;;;;;2.00;99.90;;;;;;5077189;28;19928;-80
2022/12/19 04:51:31;;;;;;;;;;;2.00;99.90;;;;;;5077106;28;19943;-80
2022/12/19 04:53:57;;;;;;;;;;;2.00;99.90;;;;;;5077191;28;20388;-80
2022/12/19 04:56:22;;;;;;;;;;;2.00;99.90;;;;;;5075841;28;19927;-80
2022/12/19 04:58:48;;;;;;;;;;;2.10;99.90;;;;;;5076996;28;20323;-80
2022/12/19 05:01:13;;;;;;;;;;;2.40;99.90;;;;;;5076257;28;20324;-81
2022/12/19 05:03:39;;;;;;;;;;;2.00;99.90;;;;;;5076966;28;19927;-80
2022/12/19 05:06:09;;;;;;;;;;;2.10;99.90;;;;;;5077206;28;19920;-80
2022/12/19 05:08:36;;;;;;;;;;;2.10;99.90;;;;;;5076434;28;19924;-81
2022/12/19 05:11:02;;;;;;;;;;;2.10;99.90;;;;;;5075578;28;19928;-80
2022/12/19 05:13:28;;;;;;;;;;;2.20;99.90;;;;;;5075829;28;19928;-80
2022/12/19 05:16:01;;;;;;;;;;;2.20;99.90;;;;;;5075529;28;19949;-80
2022/12/19 05:18:27;;;;;;;;;;;2.20;99.90;;;;;;5059217;28;20031;-80
2022/12/19 05:20:52;;;;;;;;;;;2.30;99.90;;;;;;5076659;28;20021;-81
2022/12/19 05:23:18;;;;;;;;;;;2.30;99.90;;;;;;5076699;28;20319;-80
2022/12/19 05:25:44;;;;;;;;;;;2.30;99.90;;;;;;5076622;28;19927;-81
2022/12/19 05:28:09;;;;;;;;;;;2.30;99.90;;;;;;5076282;28;19974;-80
2022/12/19 05:30:35;;;;;;;;;;;2.40;99.90;;;;;;5076902;28;20343;-81
2022/12/19 05:33:00;;;;;;;;;;;2.40;99.90;;;;;;5076733;28;20022;-80
2022/12/19 05:35:26;;;;;;;;;;;2.50;99.90;;;;;;5076341;28;19921;-80
2022/12/19 05:37:51;;;;;;;;;;;2.50;99.90;;;;;;5076319;28;20326;-80
2022/12/19 05:40:17;;;;;;;;;;;2.60;99.90;;;;;;5075020;28;19920;-80
2022/12/19 05:42:43;;;;;;;;;;;2.70;99.90;;;;;;5076191;28;19927;-81
2022/12/19 05:45:08;;;;;;;;;;;2.90;99.90;;;;;;5076189;28;19927;-81
2022/12/19 05:47:34;;;;;;;;;;;2.90;99.90;;;;;;5076073;28;19927;-81
2022/12/19 05:49:59;;;;;;;;;;;3.00;99.90;;;;;;5076037;28;19920;-81
2022/12/19 05:52:25;;;;;;;;;;;3.00;99.90;;;;;;5074901;28;19927;-80
2022/12/19 05:54:50;;;;;;;;;;;3.00;99.90;;;;;;5076208;28;19920;-81
2022/12/19 05:57:16;;;;;;;;;;;3.10;99.90;;;;;;5075872;28;20237;-80
2022/12/19 05:59:41;;;;;;;;;;;3.10;99.90;;;;;;5075970;28;19920;-81
2022/12/19 06:02:07;;;;;;;;;;;3.20;99.90;;;;;;5076300;28;20352;-80
2022/12/19 06:04:33;;;;;;;;;;;3.20;99.90;;;;;;5075871;28;19921;-86
2022/12/19 06:06:58;;;;;;;;;;;3.20;99.90;;;;;;5075690;28;19931;-80
2022/12/19 06:09:24;;;;;;;;;;;3.20;99.90;;;;;;5075774;28;20019;-80
2022/12/19 06:11:49;;;;;;;;;;;3.30;99.90;;;;;;5075662;28;20011;-79
2022/12/19 06:14:15;;;;;;;;;;;3.30;99.90;;;;;;5075598;28;19920;-78
2022/12/19 06:16:40;;;;;;;;;;;3.30;99.90;;;;;;5072074;28;19966;-81
2022/12/19 06:19:06;;;;;;;;;;;3.30;99.90;;;;;;5075344;28;19920;-79
2022/12/19 06:21:31;;;;;;;;;;;3.40;99.90;;;;;;5074475;28;19995;-79
2022/12/19 06:23:57;;;;;;;;;;;3.40;99.90;;;;;;5075313;28;20019;-79
2022/12/19 06:26:23;;;;;;;;;;;3.50;99.90;;;;;;5074714;28;19964;-80
2022/12/19 06:28:50;;;;;;;;;;;4.10;99.90;;;;;;5075405;28;19978;-80
2022/12/19 06:31:16;;;;;;;;;;;3.60;99.90;;;;;;5075452;28;20367;-82
2022/12/19 06:33:42;;;;;;;;;;;4.40;99.90;;;;;;5075338;28;19920;-80
2022/12/19 06:36:20;;;;;;;;;;;3.70;99.90;;;;;;5074151;28;19920;-79
2022/12/19 06:38:45;;;;;;;;;;;3.70;99.90;;;;;;5074335;28;19973;-83
2022/12/19 06:44:02;;;;;;;;;;;3.70;99.90;;;;;;5074800;28;19920;-80
2022/12/19 06:46:28;;;;;;;;;;;3.80;99.90;;;;;;5075031;28;19920;-79
2022/12/19 06:48:54;;;;;;;;;;;3.90;99.90;;;;;;5075083;28;19926;-80
2022/12/19 06:51:19;;;;;;;;;;;3.90;99.90;;;;;;5074503;28;19920;-77
2022/12/19 06:53:45;;;;;;;;;;;3.90;99.90;;;;;;5074800;28;19928;-78
2022/12/19 06:56:12;;;;;;;;;;;3.90;99.90;;;;;;5075160;28;19927;-80
2022/12/19 06:58:37;;;;;;;;;;;3.90;99.90;;;;;;5074748;28;19921;-79
2022/12/19 07:01:03;;;;;;;;;;;3.90;99.90;;;;;;5074723;28;20352;-79
2022/12/19 07:03:35;;;;;;;;;;;4.00;99.90;;;;;;5074789;28;19974;-79
2022/12/19 07:06:01;;;;;;;;;;;4.00;99.90;;;;;;5074679;28;19942;-76
2022/12/19 07:08:28;;;;;;;;;;;4.00;99.90;;;;;;5074471;28;19920;-81
2022/12/19 07:10:54;;;;;;;;;;;4.00;99.90;;;;;;5074496;28;19920;-82
2022/12/19 07:13:19;;;;;;;;;;;4.00;99.90;;;;;;5074782;28;19946;-76
2022/12/19 07:15:45;;;;;;;;;;;4.00;99.90;;;;;;5074509;28;19974;-77
2022/12/19 07:18:12;;;;;;;;;;;4.00;99.90;;;;;;5073441;28;19925;-78
2022/12/19 07:20:38;;;;;;;;;;;4.00;99.90;;;;;;5074261;28;19924;-78
2022/12/19 07:23:04;;;;;;;;;;;4.00;99.90;;;;;;5074399;28;19921;-84
2022/12/19 07:25:30;;;;;;;;;;;4.00;99.90;;;;;;5074421;28;20320;-77
2022/12/19 07:27:57;;;;;;;;;;;4.10;99.90;;;;;;5074267;28;20347;-78
2022/12/19 07:30:22;;;;;;;;;;;4.00;99.90;;;;;;5074331;28;20033;-78
2022/12/19 07:32:48;;;;;;;;;;;4.20;99.90;;;;;;5074384;28;19947;-78
2022/12/19 07:35:13;;;;;;;;;;;4.10;99.90;;;;;;5074077;28;19920;-78
2022/12/19 07:37:39;;;;;;;;;;;4.10;99.90;;;;;;5074129;28;19932;-75
2022/12/19 07:40:05;;;;;;;;;;;4.20;99.90;;;;;;5074155;28;20288;-75
2022/12/19 07:42:30;;;;;;;;;;;4.20;99.90;;;;;;5074084;28;19920;-75
2022/12/19 07:44:56;;;;;;;;;;;4.20;99.90;;;;;;5074029;28;20291;-75
2022/12/19 07:47:21;;;;;;;;;;;4.30;99.90;;;;;;5074234;28;19928;-75
2022/12/19 07:49:47;;;;;;;;;;;4.30;99.90;;;;;;5073797;28;20026;-75
2022/12/19 07:52:12;;;;;;;;;;;4.20;99.90;;;;;;5073770;28;19920;-75
2022/12/19 07:54:39;;;;;;;;;;;4.30;99.90;;;;;;5073888;28;19950;-75
2022/12/19 07:57:05;;;;;;;;;;;4.30;99.90;;;;;;5072926;28;19920;-75
2022/12/19 07:59:30;;;;;;;;;;;4.30;99.90;;;;;;5073826;28;20372;-75
2022/12/19 08:01:56;;;;;;;;;;;4.40;99.90;;;;;;5073066;28;19928;-76
2022/12/19 08:04:21;;;;;;;;;;;4.30;99.90;;;;;;5073478;28;19924;-76
2022/12/19 08:06:47;;;;;;;;;;;4.30;99.90;;;;;;5073684;28;19974;-76
2022/12/19 08:09:12;;;;;;;;;;;4.40;99.90;;;;;;5073969;28;19921;-76
2022/12/19 08:11:38;;;;;;;;;;;4.40;99.90;;;;;;5073589;28;20392;-75
2022/12/19 08:14:03;;;;;;;;;;;4.40;99.90;;;;;;5073584;28;19920;-76
2022/12/19 08:16:29;;;;;;;;;;;4.50;99.90;;;;;;5073780;28;19928;-76
2022/12/19 08:18:54;;;;;;;;;;;4.50;99.90;;;;;;5073601;28;20320;-76
2022/12/19 08:21:20;;;;;;;;;;;4.50;99.90;;;;;;5073416;28;19947;-76
2022/12/19 08:23:46;;;;;;;;;;;4.60;99.90;;;;;;5073446;28;19928;-78
2022/12/19 08:26:18;;;;;;;;;;;4.60;99.90;;;;;;5074064;28;19920;-76
2022/12/19 08:28:43;;;;;;;;;;;4.60;99.90;;;;;;5073489;28;19920;-76
2022/12/19 08:31:10;;;;;;;;;;;4.60;99.90;;;;;;5073789;28;19973;-75
2022/12/19 08:33:36;;;;;;;;;;;5.10;99.90;;;;;;5073356;28;20368;-76
2022/12/19 08:36:03;;;;;;;;;;;4.70;99.90;;;;;;5073611;28;20011;-76
2022/12/19 08:38:28;;;;;;;;;;;4.70;99.90;;;;;;5073808;28;19936;-76
2022/12/19 08:40:54;;;;;;;;;;;4.70;99.90;;;;;;5073208;28;19943;-77
2022/12/19 08:43:20;;;;;;;;;;;4.70;99.90;;;;;;5073753;28;20062;-76
2022/12/19 08:45:49;;;;;;;;;;;4.70;99.90;;;;;;5072692;28;19964;-75
2022/12/19 08:48:15;;;;;;;;;;;4.80;99.90;;;;;;5073378;28;19939;-77
2022/12/19 08:50:47;;;;;;;;;;;4.80;99.90;;;;;;5073460;28;19967;-76
2022/12/19 08:53:13;;;;;;;;;;;4.80;99.90;;;;;;5073983;28;19986;-77
2022/12/19 08:55:38;;;;;;;;;;;4.90;99.90;;;;;;5073782;28;19928;-77
2022/12/19 08:58:04;;;;;;;;;;;4.90;99.90;;;;;;5073434;28;20321;-73
2022/12/19 09:00:30;;;;;;;;;;;4.90;99.90;;;;;;5073174;28;20316;-73
2022/12/19 09:02:55;;;;;;;;;;;5.00;99.90;;;;;;5073335;28;19974;-79
2022/12/19 09:05:21;;;;;;;;;;;5.00;99.90;;;;;;5073415;28;20010;-77
2022/12/19 09:07:46;;;;;;;;;;;5.00;99.90;;;;;;5073057;28;20019;-78
2022/12/19 09:10:12;;;;;;;;;;;5.10;99.90;;;;;;5072307;28;20002;-79
2022/12/19 09:12:37;;;;;;;;;;;5.10;99.90;;;;;;5073452;28;19981;-78
2022/12/19 09:15:03;;;;;;;;;;;5.10;99.90;;;;;;5076183;28;19924;-80
2022/12/19 09:17:29;;;;;;;;;;;5.20;99.90;;;;;;5076770;28;19924;-78
2022/12/19 09:19:54;;;;;;;;;;;5.20;99.90;;;;;;5076763;28;19927;-77
2022/12/19 09:22:20;;;;;;;;;;;5.30;99.90;;;;;;5076548;28;20360;-79
2022/12/19 09:24:45;;;;;;;;;;;5.30;99.90;;;;;;5076645;28;19928;-83
2022/12/19 09:27:11;;;;;;;;;;;5.30;99.90;;;;;;5076471;28;19928;-78
2022/12/19 09:29:36;;;;;;;;;;;5.30;99.90;;;;;;5076519;28;19921;-80
2022/12/19 09:32:02;;;;;;;;;;;5.40;99.90;;;;;;5076448;28;19926;-78
2022/12/19 09:34:27;;;;;;;;;;;5.40;99.90;;;;;;5076305;28;19944;-77
2022/12/19 09:36:53;;;;;;;;;;;5.40;99.90;;;;;;5076271;28;19943;-78
2022/12/19 09:39:18;;;;;;;;;;;5.50;99.90;;;;;;5076272;28;19921;-78
2022/12/19 09:41:56;;;;;;;;;;;5.50;99.90;;;;;;5075179;28;20022;-79
2022/12/19 09:44:26;;;;;;;;;;;5.50;99.90;;;;;;5076291;28;20011;-78
2022/12/19 09:46:58;;;;;;;;;;;5.50;99.90;;;;;;5076243;28;19920;-78
2022/12/19 09:49:24;;;;;;;;;;;5.50;99.90;;;;;;5076056;28;19973;-79
2022/12/19 09:51:57;;;;;;;;;;;5.60;99.90;;;;;;5076206;28;20368;-78
2022/12/19 09:54:41;;;;;;;;;;;5.60;99.90;;;;;;5076452;28;20014;-78
2022/12/19 09:57:33;;;;;;;;;;;5.60;99.90;;;;;;5076154;28;19925;-79
2022/12/19 10:00:18;;;;;;;;;;;5.60;99.90;;;;;;5052334;28;20002;-80
2022/12/19 10:02:50;;;;;;;;;;;6.00;99.90;;;;;;5075757;28;19920;-78
2022/12/19 10:05:15;;;;;;;;;;;5.70;99.90;;;;;;5075958;28;20284;-78
2022/12/19 10:07:42;;;;;;;;;;;5.70;99.90;;;;;;5075516;28;19920;-78
2022/12/19 10:10:12;;;;;;;;;;;5.70;99.90;;;;;;5075869;28;19920;-77
2022/12/19 10:12:56;;;;;;;;;;;5.70;99.90;;;;;;5075657;28;19984;-78
2022/12/19 10:15:26;;;;;;;;;;;5.80;99.90;;;;;;5075474;28;20422;-76
2022/12/19 10:18:00;;;;;;;;;;;5.80;99.90;;;;;;5075654;28;20299;-78
2022/12/19 10:20:28;;;;;;;;;;;5.80;99.90;;;;;;5075765;28;19928;-78
2022/12/19 10:23:14;;;;;;;;;;;5.90;99.90;;;;;;5075421;28;19981;-79
2022/12/19 10:25:39;;;;;;;;;;;5.90;99.90;;;;;;5075116;28;20019;-75
2022/12/19 10:28:05;;;;;;;;;;;5.90;99.90;;;;;;5075366;28;20392;-77
2022/12/19 10:30:35;;;;;;;;;;;5.90;99.90;;;;;;5075196;28;19920;-77
2022/12/19 10:33:19;;;;;;;;;;;6.00;99.90;;;;;;5075284;28;20292;-77
2022/12/19 10:35:45;;;;;;;;;;;6.00;99.90;;;;;;5075246;28;19927;-77
2022/12/19 10:38:10;;;;;;;;;;;6.00;99.90;;;;;;5075191;28;19920;-75
2022/12/19 10:40:36;;;;;;;;;;;6.00;99.90;;;;;;5075159;28;20380;-78
2022/12/19 10:43:21;;;;;;;;;;;6.00;99.90;;;;;;5075102;28;19921;-77
2022/12/19 10:45:48;;;;;;;;;;;6.10;99.90;;;;;;5075029;28;19920;-79
2022/12/19 10:48:16;;;;;;;;;;;6.10;99.90;;;;;;5074752;28;20364;-79
2022/12/19 10:50:41;;;;;;;;;;;6.10;99.90;;;;;;5075006;28;20074;-79
2022/12/19 10:53:09;;;;;;;;;;;6.10;99.90;;;;;;5074987;28;19985;-79
2022/12/19 10:55:38;;;;;;;;;;;6.10;99.90;;;;;;5074869;28;19921;-78
2022/12/19 10:58:29;;;;;;;;;;;6.20;99.90;;;;;;5074809;28;19927;-79
2022/12/19 11:01:04;;;;;;;;;;;6.20;99.90;;;;;;5071547;28;19972;-77
2022/12/19 11:03:30;;;;;;;;;;;6.20;99.90;;;;;;5074700;28;19921;-78
2022/12/19 11:05:56;;;;;;;;;;;6.20;99.90;;;;;;5074636;28;19920;-75
2022/12/19 11:08:26;;;;;;;;;;;6.30;99.90;;;;;;5074452;28;19927;-80
2022/12/19 11:10:56;;;;;;;;;;;6.30;99.90;;;;;;5073348;28;19924;-77
2022/12/19 11:13:33;;;;;;;;;;;6.30;99.90;;;;;;5074527;28;19920;-79
2022/12/19 11:16:00;;;;;;;;;;;6.30;99.90;;;;;;5074456;28;19920;-80
2022/12/19 11:18:39;;;;;;;;;;;6.30;99.90;;;;;;5074458;28;19920;-77
2022/12/19 11:21:04;;;;;;;;;;;6.30;99.90;;;;;;5075128;28;20007;-77
2022/12/19 11:23:30;;;;;;;;;;;6.40;99.90;;;;;;5076289;28;19974;-77
2022/12/19 11:25:57;;;;;;;;;;;6.40;99.90;;;;;;5074788;28;19927;-78
2022/12/19 11:28:25;;;;;;;;;;;6.40;99.90;;;;;;5074441;28;19921;-79
2022/12/19 11:30:55;;;;;;;;;;;6.40;99.90;;;;;;5075868;28;19926;-76
2022/12/19 11:33:20;;;;;;;;;;;6.40;99.90;;;;;;5074232;28;19924;-85
2022/12/19 11:35:50;;;;;;;;;;;6.40;99.90;;;;;;5072701;28;20018;-77
2022/12/19 11:38:20;;;;;;;;;;;6.40;99.90;;;;;;5073997;28;19924;-79
2022/12/19 11:40:54;;;;;;;;;;;6.40;99.90;;;;;;5074145;28;20010;-78
2022/12/19 11:43:26;;;;;;;;;;;6.40;99.90;;;;;;5077838;28;20324;-78
2022/12/19 11:46:04;;;;;;;;;;;6.40;99.90;;;;;;5077712;28;19920;-77
2022/12/19 11:48:39;;;;;;;;;;;6.50;99.90;;;;;;5073920;28;19982;-79
2022/12/19 11:51:14;;;;;;;;;;;6.50;99.90;;;;;;5074017;28;19921;-79
2022/12/19 11:54:00;;;;;;;;;;;6.50;99.90;;;;;;5074034;28;19966;-78
2022/12/19 11:56:27;;;;;;;;;;;6.50;99.90;;;;;;5073671;28;20296;-79
2022/12/19 11:58:58;;;;;;;;;;;6.50;99.90;;;;;;5074152;28;19921;-81
2022/12/19 12:01:26;;;;;;;;;;;6.50;99.90;;;;;;5074200;28;19925;-78
2022/12/19 12:03:55;;;;;;;;;;;6.60;99.90;;;;;;5074459;28;19943;-79
2022/12/19 12:06:22;;;;;;;;;;;6.60;99.90;;;;;;5074308;28;19985;-80
2022/12/19 12:09:05;;;;;;;;;;;6.60;99.90;;;;;;5073842;28;19989;-78
2022/12/19 12:11:41;;;;;;;;;;;6.70;99.90;;;;;;5073747;28;19974;-76
2022/12/19 12:14:13;;;;;;;;;;;6.70;99.90;;;;;;5073863;28;19981;-74
2022/12/19 12:16:41;;;;;;;;;;;6.60;99.90;;;;;;5073762;28;19927;-78
2022/12/19 12:19:07;;;;;;;;;;;6.70;99.90;;;;;;5073963;28;20359;-78
2022/12/19 12:21:36;;;;;;;;;;;6.70;99.90;;;;;;5073889;28;19963;-78
2022/12/19 12:24:04;;;;;;;;;;;6.80;99.90;;;;;;5073519;28;19920;-71
2022/12/19 12:26:35;;;;;;;;;;;6.70;99.90;;;;;;5074170;28;19927;-72
2022/12/19 12:29:00;;;;;;;;;;;6.80;99.90;;;;;;5073533;28;19964;-73
2022/12/19 12:31:32;;;;;;;;;;;6.80;99.90;;;;;;5073568;28;19927;-80
2022/12/19 12:33:58;;;;;;;;;;;6.90;99.90;;;;;;5073657;28;19924;-79
2022/12/19 12:36:35;;;;;;;;;;;6.90;99.90;;;;;;5073582;28;19943;-78
2022/12/19 12:39:03;;;;;;;;;;;6.90;99.90;;;;;;5073753;28;20030;-77
2022/12/19 12:44:23;;;;;;;;;;;6.90;99.90;;;;;;5073711;28;19964;-80
2022/12/19 12:46:54;;;;;;;;;;;6.90;99.90;;;;;;5073752;28;19979;-78
2022/12/19 12:49:40;;;;;;;;;;;7.50;99.90;;;;;;5075500;28;20245;-80
2022/12/19 12:52:26;;;;;;;;;;;6.90;99.90;;;;;;5078095;28;20272;-84
2022/12/19 12:54:53;;;;;;;;;;;7.70;99.90;;;;;;5066164;28;19974;-80
2022/12/19 12:57:18;;;;;;;;;;;6.90;99.90;;;;;;5077164;28;19931;-80
2022/12/19 12:59:44;;;;;;;;;;;7.00;99.90;;;;;;5077101;28;19920;-80
2022/12/19 13:02:13;;;;;;;;;;;7.00;99.90;;;;;;5077708;28;19920;-81
2022/12/19 13:04:53;;;;;;;;;;;7.00;99.90;;;;;;5077044;28;20058;-80
2022/12/19 13:07:24;;;;;;;;;;;7.00;99.90;;;;;;5076842;28;20018;-80
2022/12/19 13:10:04;;;;;;;;;;;7.00;99.90;;;;;;5077025;28;19924;-80
2022/12/19 13:15:18;;;;;;;;;;;7.10;99.90;;;;;;5076949;28;19921;-80
2022/12/19 13:17:47;;;;;;;;;;;7.10;99.90;;;;;;5076837;28;19920;-81
2022/12/19 13:20:12;;;;;;;;;;;7.10;99.90;;;;;;5076411;28;20403;-79
2022/12/19 13:22:39;;;;;;;;;;;7.10;99.90;;;;;;5076755;28;19924;-78
2022/12/19 13:25:35;;;;;;;;;;;7.10;99.90;;;;;;5075591;28;20426;-80
2022/12/19 13:28:00;;;;;;;;;;;7.10;99.90;;;;;;5063499;28;19966;-80
2022/12/19 13:30:32;;;;;;;;;;;7.20;99.90;;;;;;5076055;28;19920;-80
2022/12/19 13:32:58;;;;;;;;;;;7.20;99.90;;;;;;5076648;28;19924;-79
2022/12/19 13:35:26;;;;;;;;;;;7.20;99.90;;;;;;5076703;28;19920;-79
2022/12/19 13:38:16;;;;;;;;;;;7.20;99.90;;;;;;5076654;28;19921;-80
2022/12/19 13:40:41;;;;;;;;;;;7.30;99.90;;;;;;5076393;28;19924;-79
2022/12/19 13:45:53;;;;;;;;;;;7.30;99.90;;;;;;5076267;28;19920;-78
2022/12/19 13:48:31;;;;;;;;;;;7.30;99.90;;;;;;5075010;28;20315;-79
2022/12/19 13:50:57;;;;;;;;;;;7.30;99.90;;;;;;5075976;28;19927;-80
2022/12/19 13:53:24;;;;;;;;;;;7.30;99.90;;;;;;5075994;28;19971;-80
2022/12/19 13:56:13;;;;;;;;;;;7.40;99.90;;;;;;5076088;28;19920;-78
2022/12/19 13:58:38;;;;;;;;;;;7.40;99.90;;;;;;5067809;28;20352;-79
2022/12/19 14:01:08;;;;;;;;;;;7.90;99.90;;;;;;5074917;28;19927;-83
2022/12/19 14:03:39;;;;;;;;;;;7.40;99.90;;;;;;5075536;28;19974;-81
2022/12/19 14:06:25;;;;;;;;;;;7.40;99.90;;;;;;5075869;28;19921;-81
2022/12/19 14:08:52;;;;;;;;;;;7.40;99.90;;;;;;5057021;28;19966;-77
2022/12/19 14:11:19;;;;;;;;;;;7.40;99.90;;;;;;5076240;28;20356;-82
2022/12/19 14:16:30;;;;;;;;;;;8.10;99.90;;;;;;5075886;28;19921;-80
2022/12/19 14:18:56;;;;;;;;;;;7.40;99.90;;;;;;5075544;28;19929;-82
2022/12/19 14:21:23;;;;;;;;;;;7.40;99.90;;;;;;5075501;28;19927;-77
2022/12/19 14:23:48;;;;;;;;;;;7.40;99.90;;;;;;5075210;28;19924;-80